Aérodrome :
LOGIN :

S'inscrire | Disclaimer

   EN    FR    IT 

 










Légende :    VFR   VFR Marginal   IFR   IFR Intensif   IFR Très Intensif
Visi : 
Plafond : 
>= 8 km
>= 3000ft
5 à 8 km
1000 à 3000 ft
1500m à 5 km
500 à 1000 ft
800 à 1500m
200 à 500 ft
< 800m
< 200 ft
Symboles :   Orages  Brouillard  Fortes neiges  Fortes précipitations  Vent > 20 kt
SIGMETs :   Divers  Orages  Givrage  Turbulence  Onde Orograph.  Cendres Volcan.







- Altitude de l'aérodrome : 461 ft
- Code IATA : WIE


ETOU - Wiesbaden Army

DERNIER METAR :
  • 232056Z AUTO 00000KT 9999 CLR 12/08 A3003 RMK AO2 SLP171 T01200079 50002 $

METARs EXPIRÉS :
  • 231956Z AUTO 00000KT 9999 CLR 16/08 A3003 RMK AO2 SLP170 T01550075 $
  • 231856Z AUTO 20003KT 9999 CLR 18/07 A3002 RMK AO2 SLP167 T01750070 $

TAF AMD TAF ETOU
Valide du 23 à 17h jusqu'au 24 à 17h UTC


231755Z 2317/2417 18009KT 9999 FEW050 QNH3001INS
BECMG 2319/2320 VRB06KT 9999 SCT050 QNH3000INS
BECMG 2405/2406 20009KT 9999 FEW050 QNH2995INS TX21/2413Z TN06/2405Z LAST NO AMDS AFT 2318 NEXT 2419
Pas de NOTAMs connus pour ce terrain.



MET'MAP, la Météo Aéronautique d'un coup d'oeil ! - Copyright ORBIFLY Décembre 2007 - Disclaimer

ORBIFLY MET'MAP TEAM :

Programmation & Développement : Alexandra Zaïnal
Conception & Développement : Baudouin d'Aumeries
Co-Programmation & Développement : Marc-Olivier Méhu
Soutien technique & logistique : Manuel Goepfert

Contact : metmap@orbifly.com




SOURCES & CREDITS :

   NOAA